Time;durP1;ratioP1;P1;durP2;ratioP2;P2;SDS_P1;SDS_P2;PMS_P1;PMS_P2;Temp;Humidity;BMP_temperature;BMP_pressure;BME280_temperature;BME280_humidity;BME280_pressure;Samples;Min_cycle;Max_cycle;Signal;HPM_P1;HPM_P2
2020/12/24 00:02:20;;;;;;;46.03;24.02;;;7.00;99.90;;;;;;5057274;28;20801;-84
2020/12/24 00:04:46;;;;;;;39.85;24.23;;;7.10;99.90;;;;;;5075295;28;20027;-83
2020/12/24 00:07:12;;;;;;;42.78;22.13;;;7.10;99.90;;;;;;5057233;28;20219;-84
2020/12/24 00:09:38;;;;;;;49.53;26.08;;;7.10;99.90;;;;;;5057462;28;20028;-84
2020/12/24 00:12:03;;;;;;;45.00;23.30;;;7.10;99.90;;;;;;5075170;28;20017;-83
2020/12/24 00:14:29;;;;;;;49.17;25.75;;;7.10;99.90;;;;;;5057053;28;20109;-84
2020/12/24 00:16:55;;;;;;;48.63;24.73;;;7.10;99.90;;;;;;5056999;28;20032;-84
2020/12/24 00:19:21;;;;;;;48.22;26.13;;;7.10;99.90;;;;;;5075012;28;20367;-83
2020/12/24 00:21:46;;;;;;;59.70;30.15;;;7.10;99.90;;;;;;5056956;28;20025;-83
2020/12/24 00:24:14;;;;;;;58.33;29.08;;;7.20;99.90;;;;;;5056733;28;20064;-84
2020/12/24 00:26:40;;;;;;;63.55;31.13;;;7.20;99.90;;;;;;5074881;28;20474;-84
2020/12/24 00:29:07;;;;;;;61.38;30.08;;;7.20;99.90;;;;;;5074663;28;20100;-84
2020/12/24 00:31:35;;;;;;;63.83;34.47;;;7.20;99.90;;;;;;5074760;28;20021;-84
2020/12/24 00:34:01;;;;;;;57.40;30.85;;;7.30;99.90;;;;;;5056602;28;20024;-85
2020/12/24 00:36:28;;;;;;;56.92;30.05;;;7.30;99.90;;;;;;5074627;28;20094;-84
2020/12/24 00:38:54;;;;;;;55.15;30.58;;;7.30;99.90;;;;;;5074535;28;20470;-84
2020/12/24 00:41:19;;;;;;;58.70;30.17;;;7.40;99.90;;;;;;5056643;28;20074;-84
2020/12/24 00:43:45;;;;;;;51.50;29.30;;;7.40;99.90;;;;;;5074504;28;20017;-84
2020/12/24 00:46:11;;;;;;;62.20;32.58;;;7.50;99.90;;;;;;5074491;28;20390;-83
2020/12/24 00:48:37;;;;;;;54.03;29.08;;;7.60;99.90;;;;;;5055982;28;20060;-83
2020/12/24 00:51:02;;;;;;;51.40;27.67;;;7.60;99.90;;;;;;5056519;28;20052;-83
2020/12/24 00:53:28;;;;;;;48.55;26.08;;;7.60;99.90;;;;;;5056286;28;20065;-83
2020/12/24 00:55:54;;;;;;;50.75;30.23;;;7.70;99.90;;;;;;5056330;28;20028;-84
2020/12/24 00:58:19;;;;;;;49.65;27.13;;;7.70;99.90;;;;;;5056279;28;20363;-84
2020/12/24 01:00:45;;;;;;;49.72;27.77;;;7.70;99.90;;;;;;5056360;28;20086;-82
2020/12/24 01:03:11;;;;;;;52.63;27.73;;;7.70;99.90;;;;;;5056227;28;20025;-84
2020/12/24 01:05:36;;;;;;;52.75;25.20;;;7.80;99.90;;;;;;5056153;28;20032;-82
2020/12/24 01:08:02;;;;;;;61.28;28.55;;;7.80;99.90;;;;;;5073996;28;20027;-83
2020/12/24 01:10:28;;;;;;;54.25;28.15;;;7.80;99.90;;;;;;5074043;28;20028;-84
2020/12/24 01:12:53;;;;;;;48.22;26.70;;;7.80;99.90;;;;;;5073913;28;20082;-84
2020/12/24 01:15:19;;;;;;;48.65;27.08;;;7.80;99.90;;;;;;5073812;28;20363;-84
2020/12/24 01:17:45;;;;;;;58.63;28.52;;;7.80;99.90;;;;;;5055984;28;20012;-85
2020/12/24 01:20:10;;;;;;;56.67;28.92;;;7.90;99.90;;;;;;5073897;28;20523;-83
2020/12/24 01:22:38;;;;;;;56.47;29.70;;;7.90;99.90;;;;;;5073748;28;20043;-84
2020/12/24 01:25:04;;;;;;;58.33;29.90;;;7.90;99.90;;;;;;5055859;28;20079;-84
2020/12/24 01:27:30;;;;;;;54.72;28.88;;;7.90;99.90;;;;;;5055636;28;20466;-85
2020/12/24 01:29:56;;;;;;;56.80;29.67;;;7.90;99.90;;;;;;5055709;28;20021;-84
2020/12/24 01:32:21;;;;;;;57.00;29.65;;;7.90;99.90;;;;;;5055662;28;20059;-84
2020/12/24 01:34:47;;;;;;;67.57;31.50;;;7.90;99.90;;;;;;5073566;28;20096;-84
2020/12/24 01:37:13;;;;;;;61.15;31.83;;;7.90;99.90;;;;;;5055365;28;20032;-85
2020/12/24 01:39:38;;;;;;;59.40;31.27;;;7.90;99.90;;;;;;5073442;28;20031;-83
2020/12/24 01:42:04;;;;;;;60.95;33.20;;;7.90;99.90;;;;;;5073394;28;20447;-85
2020/12/24 01:44:30;;;;;;;60.85;32.00;;;7.90;99.90;;;;;;5072985;28;20120;-84
2020/12/24 01:46:55;;;;;;;66.85;31.52;;;7.90;99.90;;;;;;5055508;28;20115;-84
2020/12/24 01:49:21;;;;;;;67.20;34.13;;;7.90;99.90;;;;;;5055489;28;20031;-83
2020/12/24 01:51:57;;;;;;;65.93;33.20;;;7.90;99.90;;;;;;5073179;28;20028;-85
2020/12/24 01:54:25;;;;;;;65.82;31.20;;;7.90;99.90;;;;;;5055347;28;20459;-84
2020/12/24 01:56:51;;;;;;;68.22;34.40;;;7.90;99.90;;;;;;5055237;28;20028;-85
2020/12/24 01:59:18;;;;;;;67.05;34.10;;;8.00;99.90;;;;;;5054870;28;20589;-84
2020/12/24 02:01:53;;;;;;;68.60;36.80;;;8.00;99.90;;;;;;5088410;28;20059;-85
2020/12/24 02:04:19;;;;;;;69.82;36.70;;;8.10;99.90;;;;;;5055488;28;20030;-85
2020/12/24 02:06:48;;;;;;;71.03;35.25;;;8.10;99.90;;;;;;5055021;28;20028;-85
2020/12/24 02:09:14;;;;;;;69.22;36.90;;;8.10;99.90;;;;;;5073005;28;20127;-85
2020/12/24 02:11:42;;;;;;;62.63;34.53;;;8.10;99.90;;;;;;5072959;28;20052;-85
2020/12/24 02:14:07;;;;;;;65.93;33.03;;;8.20;99.90;;;;;;5073092;28;20040;-85
2020/12/24 02:16:34;;;;;;;63.78;32.28;;;8.20;99.90;;;;;;5054738;28;20390;-84
2020/12/24 02:19:01;;;;;;;58.92;31.80;;;8.20;99.90;;;;;;5054830;28;20032;-85
2020/12/24 02:21:27;;;;;;;57.70;31.95;;;8.20;99.90;;;;;;5072809;28;20048;-84
2020/12/24 02:23:53;;;;;;;61.97;33.42;;;8.30;99.90;;;;;;5072823;28;20060;-84
2020/12/24 02:26:18;;;;;;;58.70;31.30;;;8.30;99.90;;;;;;5054847;28;20478;-85
2020/12/24 02:28:44;;;;;;;60.50;31.33;;;8.30;99.90;;;;;;5054795;28;20032;-85
2020/12/24 02:31:10;;;;;;;60.45;29.50;;;8.30;99.90;;;;;;5072802;28;20032;-84
2020/12/24 02:33:35;;;;;;;54.47;30.27;;;8.40;99.90;;;;;;5054669;28;20082;-85
2020/12/24 02:36:02;;;;;;;61.25;30.30;;;8.40;99.90;;;;;;5072849;28;20424;-84
2020/12/24 02:38:28;;;;;;;60.53;29.10;;;8.40;99.90;;;;;;5035482;28;20021;-85
2020/12/24 02:40:53;;;;;;;55.03;27.75;;;8.40;99.90;;;;;;5034759;28;20102;-84
2020/12/24 02:43:19;;;;;;;46.85;27.05;;;8.40;99.90;;;;;;5052518;28;20021;-85
2020/12/24 02:45:45;;;;;;;49.65;25.92;;;8.40;99.90;;;;;;5066759;28;20025;-84
2020/12/24 02:48:10;;;;;;;49.78;25.70;;;8.40;99.90;;;;;;5034666;28;20531;-84
2020/12/24 02:50:36;;;;;;;49.92;25.65;;;8.40;99.90;;;;;;5034726;28;20448;-83
2020/12/24 02:53:02;;;;;;;44.80;22.83;;;8.40;99.90;;;;;;5067988;28;20498;-84
2020/12/24 02:55:27;;;;;;;43.97;23.88;;;8.40;99.90;;;;;;5052502;28;20094;-83
2020/12/24 02:57:53;;;;;;;40.22;24.13;;;8.50;99.90;;;;;;5067814;28;20029;-84
2020/12/24 03:00:18;;;;;;;41.17;22.08;;;8.50;99.90;;;;;;5034666;28;20036;-82
2020/12/24 03:02:44;;;;;;;39.08;19.90;;;8.50;99.90;;;;;;5067819;28;20033;-85
2020/12/24 03:05:10;;;;;;;34.40;19.10;;;8.50;99.90;;;;;;5067901;28;20033;-83
2020/12/24 03:07:36;;;;;;;35.60;20.23;;;8.60;99.90;;;;;;5052345;28;20025;-84
2020/12/24 03:10:02;;;;;;;30.27;16.52;;;8.60;99.90;;;;;;5051751;28;20029;-84
2020/12/24 03:12:27;;;;;;;31.70;16.40;;;8.60;99.90;;;;;;5037462;28;20075;-84
2020/12/24 03:14:53;;;;;;;29.92;16.05;;;8.60;99.90;;;;;;5056583;28;20037;-84
2020/12/24 03:17:20;;;;;;;26.83;14.95;;;8.70;99.90;;;;;;5056051;28;20033;-85
2020/12/24 03:19:46;;;;;;;27.73;16.23;;;8.70;99.90;;;;;;5056271;28;20025;-83
2020/12/24 03:22:11;;;;;;;22.48;13.77;;;8.70;99.90;;;;;;5038221;28;20394;-83
2020/12/24 03:24:37;;;;;;;29.75;13.27;;;8.70;99.90;;;;;;5038225;28;20434;-84
2020/12/24 03:27:03;;;;;;;29.25;13.60;;;8.70;99.90;;;;;;5038102;28;20028;-84
2020/12/24 03:29:29;;;;;;;27.92;13.23;;;8.70;99.90;;;;;;5038407;28;20025;-84
2020/12/24 03:31:55;;;;;;;22.08;12.27;;;8.80;99.90;;;;;;5037822;28;20115;-85
2020/12/24 03:34:21;;;;;;;25.75;13.68;;;8.80;99.90;;;;;;5055630;28;20021;-84
2020/12/24 03:36:47;;;;;;;22.15;12.48;;;8.80;99.90;;;;;;5055758;28;20044;-84
2020/12/24 03:39:12;;;;;;;22.20;12.75;;;8.80;99.90;;;;;;5037894;28;20020;-84
2020/12/24 03:41:38;;;;;;;22.13;13.20;;;8.80;99.90;;;;;;5055732;28;20079;-82
2020/12/24 03:44:04;;;;;;;25.25;14.73;;;8.80;99.90;;;;;;5037731;28;20064;-83
2020/12/24 03:46:29;;;;;;;21.17;12.65;;;8.80;99.90;;;;;;5055609;28;20029;-83
2020/12/24 03:48:55;;;;;;;24.10;14.48;;;8.80;99.90;;;;;;5055604;28;20096;-85
2020/12/24 03:51:21;;;;;;;24.48;13.85;;;8.80;99.90;;;;;;5055587;28;20021;-84
2020/12/24 03:53:46;;;;;;;22.25;13.63;;;8.80;99.90;;;;;;5055537;28;20536;-84
2020/12/24 03:56:12;;;;;;;22.25;13.52;;;8.80;99.90;;;;;;5055508;28;20071;-84
2020/12/24 03:58:38;;;;;;;23.92;13.13;;;8.80;99.90;;;;;;5055460;28;20024;-85
2020/12/24 04:01:04;;;;;;;24.08;11.95;;;8.80;99.90;;;;;;5037491;28;20386;-84
2020/12/24 04:03:30;;;;;;;22.38;12.98;;;8.80;99.90;;;;;;5055276;28;20025;-85
2020/12/24 04:05:56;;;;;;;24.73;13.60;;;8.80;99.90;;;;;;5070783;28;20556;-84
2020/12/24 04:08:22;;;;;;;23.17;12.50;;;8.70;99.90;;;;;;5070100;28;20025;-84
2020/12/24 04:10:47;;;;;;;25.13;14.00;;;8.70;99.90;;;;;;5037393;28;20083;-84
2020/12/24 04:13:13;;;;;;;22.92;13.30;;;8.70;99.90;;;;;;5070512;28;20124;-85
2020/12/24 04:15:39;;;;;;;23.23;12.85;;;8.60;99.90;;;;;;5037401;28;20029;-85
2020/12/24 04:18:04;;;;;;;20.95;12.80;;;8.60;99.90;;;;;;5055068;28;20025;-84
2020/12/24 04:20:30;;;;;;;20.67;13.45;;;8.60;99.90;;;;;;5055027;28;20096;-83
2020/12/24 04:22:55;;;;;;;22.27;12.82;;;8.60;99.90;;;;;;5054302;28;20082;-84
2020/12/24 04:25:21;;;;;;;23.10;13.38;;;8.60;99.90;;;;;;5055000;28;20027;-83
2020/12/24 04:27:47;;;;;;;21.02;12.82;;;8.50;99.90;;;;;;5054844;28;20029;-85
2020/12/24 04:30:12;;;;;;;21.88;12.95;;;8.50;99.90;;;;;;5070252;28;20021;-84
2020/12/24 04:32:38;;;;;;;23.25;13.52;;;8.50;99.90;;;;;;5075929;28;20056;-84
2020/12/24 04:35:04;;;;;;;22.27;13.73;;;8.50;99.90;;;;;;5074841;28;20532;-84
2020/12/24 04:37:30;;;;;;;16.58;10.73;;;8.50;99.90;;;;;;5074809;28;20036;-85
2020/12/24 04:39:55;;;;;;;20.63;11.30;;;8.40;99.90;;;;;;5056736;28;20051;-84
2020/12/24 04:42:22;;;;;;;24.00;12.55;;;8.40;99.90;;;;;;5056540;28;20486;-84
2020/12/24 04:44:51;;;;;;;21.58;11.63;;;8.40;99.90;;;;;;5056522;28;20066;-85
2020/12/24 04:47:17;;;;;;;19.08;11.95;;;8.40;99.90;;;;;;5056510;28;20115;-85
2020/12/24 04:49:44;;;;;;;23.50;12.80;;;8.30;99.90;;;;;;5074641;28;20024;-85
2020/12/24 04:52:12;;;;;;;21.38;11.90;;;8.30;99.90;;;;;;5074432;28;20077;-85
2020/12/24 04:54:39;;;;;;;19.27;11.93;;;8.30;99.90;;;;;;5074379;28;20065;-85
2020/12/24 04:57:10;;;;;;;21.80;12.80;;;8.30;99.90;;;;;;5074226;28;20036;-85
2020/12/24 04:59:37;;;;;;;26.42;13.55;;;8.30;99.90;;;;;;5074575;28;20029;-84
2020/12/24 05:02:04;;;;;;;23.52;12.02;;;8.30;99.90;;;;;;5074213;28;20367;-84
2020/12/24 05:04:31;;;;;;;22.42;13.40;;;8.30;99.90;;;;;;5056259;28;20028;-84
2020/12/24 05:07:05;;;;;;;24.60;12.25;;;8.20;99.90;;;;;;5056143;28;20022;-84
2020/12/24 05:09:32;;;;;;;22.23;12.40;;;8.20;99.90;;;;;;5055988;28;20103;-84
2020/12/24 05:11:58;;;;;;;23.92;12.75;;;8.20;99.90;;;;;;5074018;28;20112;-84
2020/12/24 05:14:25;;;;;;;20.27;12.38;;;8.20;99.90;;;;;;5071187;28;20115;-83
2020/12/24 05:17:03;;;;;;;18.85;11.13;;;8.10;99.90;;;;;;5073578;28;20032;-83
2020/12/24 05:19:34;;;;;;;18.92;11.05;;;8.10;99.90;;;;;;5055809;28;20033;-83
2020/12/24 05:22:14;;;;;;;18.17;10.57;;;8.10;99.90;;;;;;5055167;28;20058;-84
2020/12/24 05:24:40;;;;;;;19.15;11.10;;;8.10;99.90;;;;;;5055699;28;20470;-84
2020/12/24 05:27:10;;;;;;;14.18;9.52;;;8.10;99.90;;;;;;5073455;28;20127;-84
2020/12/24 05:29:38;;;;;;;19.27;10.15;;;8.00;99.90;;;;;;5073325;28;20020;-84
2020/12/24 05:32:04;;;;;;;19.20;11.88;;;8.00;99.90;;;;;;5055530;28;20024;-85
2020/12/24 05:34:30;;;;;;;23.50;13.20;;;8.00;99.90;;;;;;5054535;28;20091;-84
2020/12/24 05:37:16;;;;;;;21.83;12.63;;;8.00;99.90;;;;;;5054648;28;20555;-85
2020/12/24 05:39:46;;;;;;;24.73;12.40;;;8.00;99.90;;;;;;5073297;28;20524;-84
2020/12/24 05:42:11;;;;;;;20.98;13.65;;;8.00;99.90;;;;;;5071190;28;20021;-84
2020/12/24 05:44:39;;;;;;;24.95;12.63;;;8.00;99.90;;;;;;5054520;28;20016;-84
2020/12/24 05:47:05;;;;;;;21.08;12.63;;;8.00;99.90;;;;;;5055164;28;20024;-85
2020/12/24 05:49:32;;;;;;;25.85;14.18;;;8.00;99.90;;;;;;5054700;28;20021;-85
2020/12/24 05:51:59;;;;;;;24.40;13.65;;;7.90;99.90;;;;;;5055096;28;20020;-85
2020/12/24 05:54:29;;;;;;;21.75;12.77;;;8.00;99.90;;;;;;5072581;28;20020;-84
2020/12/24 05:56:56;;;;;;;25.00;14.65;;;8.00;99.90;;;;;;5055211;28;20036;-84
2020/12/24 05:59:24;;;;;;;28.08;14.25;;;7.90;99.90;;;;;;5055171;28;20031;-85
2020/12/24 06:02:02;;;;;;;24.98;13.18;;;7.90;99.90;;;;;;5072967;28;20390;-85
2020/12/24 06:04:48;;;;;;;28.40;14.63;;;7.90;99.90;;;;;;5054699;28;20028;-84
2020/12/24 06:07:20;;;;;;;26.75;14.20;;;7.90;99.90;;;;;;5088565;28;20089;-85
2020/12/24 06:09:50;;;;;;;33.43;16.23;;;7.90;99.90;;;;;;5054135;28;20064;-85
2020/12/24 06:12:24;;;;;;;28.83;16.00;;;7.90;99.90;;;;;;5070456;28;20282;-86
2020/12/24 06:15:01;;;;;;;31.85;14.40;;;7.90;99.90;;;;;;5054994;28;20044;-85
2020/12/24 06:17:28;;;;;;;25.23;13.52;;;7.90;99.90;;;;;;5054744;28;20077;-85
2020/12/24 06:19:54;;;;;;;27.48;14.95;;;7.90;99.90;;;;;;5072919;28;20095;-85
2020/12/24 06:22:22;;;;;;;19.08;12.85;;;7.80;99.90;;;;;;5054852;28;20021;-85
2020/12/24 06:24:56;;;;;;;22.08;14.48;;;7.80;99.90;;;;;;5054109;28;20021;-85
2020/12/24 06:27:42;;;;;;;25.35;13.98;;;7.80;99.90;;;;;;5051459;28;20091;-84
2020/12/24 06:30:11;;;;;;;22.52;13.13;;;7.80;99.90;;;;;;5050884;28;20028;-85
2020/12/24 06:32:58;;;;;;;22.58;12.57;;;7.80;99.90;;;;;;5051423;28;20025;-85
2020/12/24 06:35:38;;;;;;;23.17;13.43;;;7.80;99.90;;;;;;5052717;28;20017;-84
2020/12/24 06:38:07;;;;;;;18.92;12.20;;;7.80;99.90;;;;;;5052657;28;20521;-84
2020/12/24 06:40:40;;;;;;;20.55;12.23;;;7.80;99.90;;;;;;5051296;28;20078;-84
2020/12/24 06:43:08;;;;;;;21.98;13.02;;;7.80;99.90;;;;;;5052510;28;20025;-84
2020/12/24 06:45:38;;;;;;;23.60;13.15;;;7.80;99.90;;;;;;5052565;28;20029;-84
2020/12/24 06:48:24;;;;;;;23.92;12.95;;;7.80;99.90;;;;;;5055439;28;20475;-84
2020/12/24 06:51:03;;;;;;;23.75;13.43;;;7.80;99.90;;;;;;5056730;28;20548;-84
2020/12/24 06:53:33;;;;;;;23.60;13.32;;;7.80;99.90;;;;;;5067051;28;20535;-84
2020/12/24 06:56:17;;;;;;;26.80;13.02;;;7.90;99.90;;;;;;5061210;28;20095;-85
2020/12/24 06:58:53;;;;;;;24.50;13.77;;;7.80;99.90;;;;;;5057715;28;20435;-84
2020/12/24 07:01:27;;;;;;;26.25;14.55;;;7.80;99.90;;;;;;5076483;28;20032;-85
2020/12/24 07:03:55;;;;;;;20.67;11.93;;;7.90;99.90;;;;;;5076497;28;20489;-85
2020/12/24 07:06:39;;;;;;;23.02;11.95;;;7.90;99.90;;;;;;5067842;28;20386;-85
2020/12/24 07:09:05;;;;;;;22.95;12.45;;;7.90;99.90;;;;;;5071033;28;20021;-85
2020/12/24 07:11:46;;;;;;;20.80;12.02;;;7.90;99.90;;;;;;5057332;28;20024;-85
2020/12/24 07:14:30;;;;;;;23.17;12.85;;;7.90;99.90;;;;;;5065345;28;20115;-84
2020/12/24 07:17:07;;;;;;;18.90;11.30;;;7.90;99.90;;;;;;5071493;28;20036;-85
2020/12/24 07:19:34;;;;;;;23.17;12.57;;;7.90;99.90;;;;;;5070994;28;20032;-85
2020/12/24 07:22:05;;;;;;;23.08;11.68;;;7.90;99.90;;;;;;5065495;28;20055;-83
2020/12/24 07:24:31;;;;;;;23.85;11.93;;;8.00;99.90;;;;;;5057206;28;20020;-85
2020/12/24 07:26:58;;;;;;;21.30;13.02;;;8.00;99.90;;;;;;5073641;28;20025;-84
2020/12/24 07:29:26;;;;;;;22.55;11.73;;;8.00;99.90;;;;;;5051032;28;20021;-85
2020/12/24 07:31:53;;;;;;;19.27;10.82;;;8.10;99.90;;;;;;5073050;28;20557;-85
2020/12/24 07:34:35;;;;;;;23.02;11.50;;;8.10;99.90;;;;;;5073943;28;20028;-84
2020/12/24 07:37:02;;;;;;;21.00;11.45;;;8.10;99.90;;;;;;5054833;28;20043;-85
2020/12/24 07:39:28;;;;;;;20.73;11.98;;;8.10;99.90;;;;;;5070575;28;20054;-85
2020/12/24 07:41:54;;;;;;;25.67;16.08;;;8.10;99.90;;;;;;5072945;28;20029;-85
2020/12/24 07:44:21;;;;;;;56.47;33.70;;;8.10;99.90;;;;;;5070726;28;20367;-84
2020/12/24 07:46:48;;;;;;;80.15;59.60;;;8.10;99.90;;;;;;5049731;28;20032;-85
2020/12/24 07:49:15;;;;;;;52.38;34.38;;;8.10;99.90;;;;;;5049567;28;20098;-84
2020/12/24 07:51:41;;;;;;;42.05;26.90;;;8.10;99.90;;;;;;5071045;28;20028;-84
2020/12/24 07:54:12;;;;;;;41.45;24.35;;;8.10;99.90;;;;;;5051356;28;21125;-83
2020/12/24 07:56:44;;;;;;;36.58;23.80;;;8.10;99.90;;;;;;5051613;28;20042;-84
2020/12/24 07:59:10;;;;;;;33.60;21.57;;;8.10;99.90;;;;;;5049703;28;20020;-84
2020/12/24 08:01:36;;;;;;;28.73;18.35;;;8.10;99.90;;;;;;5076078;28;20029;-84
2020/12/24 08:04:04;;;;;;;29.67;20.17;;;8.10;99.90;;;;;;5057292;28;20086;-86
2020/12/24 08:06:34;;;;;;;26.08;15.13;;;8.10;99.90;;;;;;5069354;28;20029;-85
2020/12/24 08:09:14;;;;;;;27.73;16.20;;;8.10;99.90;;;;;;5056531;28;20021;-84
2020/12/24 08:11:41;;;;;;;26.88;13.77;;;8.10;99.90;;;;;;5074443;28;20061;-84
2020/12/24 08:14:07;;;;;;;24.55;14.55;;;8.10;99.90;;;;;;5074425;28;20028;-83
2020/12/24 08:16:36;;;;;;;38.47;13.55;;;8.20;99.90;;;;;;5074351;28;20037;-85
2020/12/24 08:19:28;;;;;;;25.70;14.32;;;8.20;99.90;;;;;;5052270;28;20056;-85
2020/12/24 08:22:03;;;;;;;27.02;13.30;;;8.20;99.90;;;;;;5073445;28;20016;-86
2020/12/24 08:24:31;;;;;;;22.42;13.88;;;8.20;99.90;;;;;;5074217;28;20033;-85
2020/12/24 08:26:57;;;;;;;20.33;13.23;;;8.20;99.90;;;;;;5056338;28;20070;-86
2020/12/24 08:29:23;;;;;;;19.85;11.38;;;8.20;99.90;;;;;;5053974;28;20045;-85
2020/12/24 08:31:50;;;;;;;23.40;12.32;;;8.20;99.90;;;;;;5052562;28;20016;-86
2020/12/24 08:34:16;;;;;;;20.23;11.73;;;8.20;99.90;;;;;;5072047;28;20036;-85
2020/12/24 08:36:48;;;;;;;20.48;12.85;;;8.20;99.90;;;;;;5052254;28;20028;-85
2020/12/24 08:39:16;;;;;;;23.30;13.85;;;8.20;99.90;;;;;;5070088;28;20030;-86
2020/12/24 08:41:42;;;;;;;26.00;16.20;;;8.20;99.90;;;;;;5054673;28;20107;-86
2020/12/24 08:44:09;;;;;;;35.33;25.75;;;8.20;99.90;;;;;;5053585;28;20047;-85
2020/12/24 08:46:35;;;;;;;39.90;25.60;;;8.20;99.90;;;;;;5051890;28;20025;-85
2020/12/24 08:49:26;;;;;;;23.38;14.48;;;8.20;99.90;;;;;;5070075;28;20025;-86
2020/12/24 08:52:08;;;;;;;39.88;22.65;;;8.30;99.90;;;;;;5052792;28;20477;-86
2020/12/24 08:54:35;;;;;;;36.38;21.27;;;8.30;99.90;;;;;;5072297;28;20048;-86
2020/12/24 08:57:03;;;;;;;33.63;16.80;;;8.30;99.90;;;;;;5073290;28;20071;-86
2020/12/24 08:59:28;;;;;;;42.38;26.65;;;8.30;99.90;;;;;;5050082;28;20115;-85
2020/12/24 09:01:56;;;;;;;28.63;16.48;;;8.30;99.90;;;;;;5073662;28;20095;-85
2020/12/24 09:04:25;;;;;;;23.35;13.52;;;8.30;99.90;;;;;;5055456;28;20070;-84
2020/12/24 09:06:51;;;;;;;25.98;15.55;;;8.30;99.90;;;;;;5073351;28;20025;-85
2020/12/24 09:09:22;;;;;;;35.17;22.40;;;8.30;99.90;;;;;;5072336;28;20084;-84
2020/12/24 09:11:48;;;;;;;29.65;15.50;;;8.30;99.90;;;;;;5069293;28;20074;-85
2020/12/24 09:14:17;;;;;;;36.83;17.50;;;8.30;99.90;;;;;;5069183;28;20024;-85
2020/12/24 09:16:53;;;;;;;31.70;19.48;;;8.30;99.90;;;;;;5055516;28;20293;-86
2020/12/24 09:19:19;;;;;;;36.35;16.20;;;8.30;99.90;;;;;;5050568;28;20047;-85
2020/12/24 09:21:54;;;;;;;31.35;17.38;;;8.30;99.90;;;;;;5069198;28;20028;-85
2020/12/24 09:24:20;;;;;;;35.35;21.63;;;8.30;99.90;;;;;;5065636;28;20036;-85
2020/12/24 09:26:53;;;;;;;43.15;19.45;;;8.30;99.90;;;;;;5072542;28;20028;-85
2020/12/24 09:29:21;;;;;;;28.25;14.65;;;8.40;99.90;;;;;;5053867;28;20440;-85
2020/12/24 09:31:56;;;;;;;32.38;17.63;;;8.30;99.90;;;;;;5054516;28;20020;-85
2020/12/24 09:34:22;;;;;;;42.80;24.98;;;8.30;99.90;;;;;;5072117;28;20107;-84
2020/12/24 09:36:49;;;;;;;27.27;13.85;;;8.30;99.90;;;;;;5053272;28;20037;-85
2020/12/24 09:39:15;;;;;;;27.40;15.48;;;8.30;99.90;;;;;;5055334;28;20027;-84
2020/12/24 09:41:42;;;;;;;32.72;15.70;;;8.30;99.90;;;;;;5056372;28;20032;-85
2020/12/24 09:44:08;;;;;;;22.60;11.90;;;8.30;99.90;;;;;;5070333;28;20032;-85
2020/12/24 09:46:34;;;;;;;20.20;12.13;;;8.30;99.90;;;;;;5070126;28;20051;-84
2020/12/24 09:49:00;;;;;;;35.15;17.77;;;8.30;99.90;;;;;;5053494;28;20474;-86
2020/12/24 09:51:25;;;;;;;27.83;14.60;;;8.30;99.90;;;;;;5073719;28;20017;-84
2020/12/24 09:53:51;;;;;;;23.58;13.73;;;8.20;99.90;;;;;;5056000;28;20473;-85
2020/12/24 09:56:18;;;;;;;41.05;20.02;;;8.20;99.90;;;;;;5070860;28;20375;-84
2020/12/24 09:58:44;;;;;;;33.67;19.60;;;8.30;99.90;;;;;;5054058;28;20032;-85
2020/12/24 10:01:09;;;;;;;32.90;18.85;;;8.20;99.90;;;;;;5072098;28;20017;-86
2020/12/24 10:03:35;;;;;;;30.48;16.17;;;8.20;99.90;;;;;;5072263;28;20437;-85
2020/12/24 10:06:00;;;;;;;41.17;20.13;;;8.20;99.90;;;;;;5054384;28;20055;-84
2020/12/24 10:08:26;;;;;;;35.47;17.15;;;8.20;99.90;;;;;;5070694;28;20021;-85
2020/12/24 10:10:52;;;;;;;67.10;35.35;;;8.20;99.90;;;;;;5071672;28;20029;-85
2020/12/24 10:13:17;;;;;;;58.97;26.77;;;8.20;99.90;;;;;;5071847;28;20056;-85
2020/12/24 10:15:45;;;;;;;44.65;22.73;;;8.20;99.90;;;;;;5071968;28;20093;-84
2020/12/24 10:18:10;;;;;;;40.10;20.80;;;8.20;99.90;;;;;;5053905;28;20434;-85
2020/12/24 10:20:36;;;;;;;103.53;53.95;;;8.30;99.90;;;;;;5053932;28;20047;-85
2020/12/24 10:23:02;;;;;;;106.30;53.10;;;8.30;99.90;;;;;;5072051;28;20501;-85
2020/12/24 10:25:27;;;;;;;59.17;30.38;;;8.20;99.90;;;;;;5071357;28;20512;-84
2020/12/24 10:27:53;;;;;;;48.83;27.58;;;8.30;99.90;;;;;;5071401;28;20093;-86
2020/12/24 10:30:19;;;;;;;59.13;30.00;;;8.20;99.90;;;;;;5053246;28;20504;-83
2020/12/24 10:32:44;;;;;;;143.15;73.68;;;8.20;99.90;;;;;;5070714;28;20048;-85
2020/12/24 10:35:10;;;;;;;116.85;63.97;;;8.20;99.90;;;;;;5071561;28;20090;-85
2020/12/24 10:37:36;;;;;;;47.45;25.10;;;8.20;99.90;;;;;;5071555;28;20379;-85
2020/12/24 10:40:04;;;;;;;49.55;25.42;;;8.20;99.90;;;;;;5071239;28;20016;-85
2020/12/24 10:42:30;;;;;;;105.00;55.45;;;8.20;99.90;;;;;;5071065;28;20106;-85
2020/12/24 10:44:55;;;;;;;125.22;66.30;;;8.20;99.90;;;;;;5068301;28;20055;-84
2020/12/24 10:47:21;;;;;;;60.15;30.42;;;8.20;99.90;;;;;;5071280;28;20505;-84
2020/12/24 10:49:47;;;;;;;47.85;23.67;;;8.20;99.90;;;;;;5071374;28;20021;-83
2020/12/24 10:52:13;;;;;;;42.67;21.95;;;8.20;99.90;;;;;;5042165;28;20028;-85
2020/12/24 10:54:38;;;;;;;53.92;29.80;;;8.20;99.90;;;;;;5053510;28;20060;-85
2020/12/24 10:57:04;;;;;;;70.38;33.67;;;8.20;99.90;;;;;;5044308;28;20057;-84
2020/12/24 10:59:30;;;;;;;70.45;34.75;;;8.20;99.90;;;;;;5051784;28;20021;-83
2020/12/24 11:01:55;;;;;;;54.15;25.23;;;8.20;99.90;;;;;;5069871;28;20024;-85
2020/12/24 11:04:21;;;;;;;33.13;19.38;;;8.20;99.90;;;;;;5039577;28;20021;-83
2020/12/24 11:06:47;;;;;;;36.05;18.80;;;8.20;99.90;;;;;;5077335;28;20047;-84
2020/12/24 11:09:14;;;;;;;48.35;24.27;;;8.20;99.90;;;;;;5063862;28;20103;-84
2020/12/24 11:11:40;;;;;;;60.35;30.08;;;8.20;99.90;;;;;;5052281;28;20016;-86
2020/12/24 11:14:07;;;;;;;41.03;21.00;;;8.20;99.90;;;;;;5054646;28;20041;-85
2020/12/24 11:16:33;;;;;;;30.77;17.70;;;8.20;99.90;;;;;;5052842;28;20090;-84
2020/12/24 11:18:59;;;;;;;34.75;18.25;;;8.20;99.90;;;;;;5070222;28;20112;-83
2020/12/24 11:21:24;;;;;;;32.60;18.17;;;8.20;99.90;;;;;;5066067;28;20112;-83
2020/12/24 11:23:53;;;;;;;42.47;20.67;;;8.20;99.90;;;;;;5066132;28;20333;-85
2020/12/24 11:26:23;;;;;;;34.22;19.23;;;8.20;99.90;;;;;;5041827;28;20024;-83
2020/12/24 11:28:50;;;;;;;26.17;15.20;;;8.20;99.90;;;;;;5076551;28;20103;-85
2020/12/24 11:31:22;;;;;;;25.02;14.27;;;8.10;99.90;;;;;;5076190;28;20046;-85
2020/12/24 11:33:48;;;;;;;22.55;13.65;;;8.10;99.90;;;;;;5045852;28;20044;-86
2020/12/24 11:36:13;;;;;;;22.10;13.05;;;8.10;99.90;;;;;;5065974;28;20098;-84
2020/12/24 11:38:40;;;;;;;21.92;13.05;;;8.10;99.90;;;;;;5065388;28;20438;-86
2020/12/24 11:41:06;;;;;;;18.55;12.27;;;8.10;99.90;;;;;;5073138;28;20056;-84
2020/12/24 11:43:32;;;;;;;23.95;13.45;;;8.10;99.90;;;;;;5067171;28;20049;-86
2020/12/24 11:45:57;;;;;;;23.85;13.43;;;8.10;99.90;;;;;;5055659;28;20017;-84
2020/12/24 11:48:23;;;;;;;21.38;11.80;;;8.10;99.90;;;;;;5061704;28;20035;-85
2020/12/24 11:50:49;;;;;;;26.00;15.18;;;8.10;99.90;;;;;;5070233;28;20025;-84
2020/12/24 11:53:14;;;;;;;21.38;13.90;;;8.10;99.90;;;;;;5075288;28;20035;-86
2020/12/24 11:55:40;;;;;;;25.63;14.23;;;8.00;99.90;;;;;;5072637;28;20035;-84
2020/12/24 11:58:06;;;;;;;29.00;16.13;;;8.00;99.90;;;;;;5065416;28;20059;-84
2020/12/24 12:00:31;;;;;;;27.27;15.45;;;8.00;99.90;;;;;;5073521;28;20035;-84
2020/12/24 12:02:57;;;;;;;24.92;14.50;;;8.00;99.90;;;;;;5051657;28;20016;-85
2020/12/24 12:05:23;;;;;;;29.58;16.02;;;8.00;99.90;;;;;;5072215;28;20024;-84
2020/12/24 12:07:48;;;;;;;31.92;15.98;;;8.00;99.90;;;;;;5054379;28;20417;-84
2020/12/24 12:10:14;;;;;;;20.92;12.57;;;8.00;99.90;;;;;;5071580;28;20029;-83
2020/12/24 12:12:40;;;;;;;34.28;17.42;;;7.90;99.90;;;;;;5068684;28;20031;-85
2020/12/24 12:15:05;;;;;;;21.63;12.77;;;7.90;99.90;;;;;;5054969;28;20959;-83
2020/12/24 12:17:31;;;;;;;25.88;12.07;;;8.00;99.90;;;;;;5054181;28;20040;-84
2020/12/24 12:19:56;;;;;;;22.52;11.77;;;7.90;99.90;;;;;;5054418;28;20024;-83
2020/12/24 12:22:22;;;;;;;18.20;10.43;;;7.90;99.90;;;;;;5072967;28;20063;-85
2020/12/24 12:24:48;;;;;;;17.20;9.32;;;8.00;99.90;;;;;;5058246;28;20420;-84
2020/12/24 12:27:14;;;;;;;22.23;12.40;;;7.90;99.90;;;;;;5051851;28;20040;-84
2020/12/24 12:29:40;;;;;;;20.92;10.05;;;7.90;99.90;;;;;;5055189;28;20405;-83
2020/12/24 12:32:05;;;;;;;30.05;14.43;;;7.90;99.90;;;;;;5072090;28;20071;-82
2020/12/24 12:34:31;;;;;;;17.42;10.35;;;7.90;99.90;;;;;;5055177;28;20020;-83
2020/12/24 12:36:57;;;;;;;43.60;20.73;;;7.80;99.90;;;;;;5054835;28;20032;-84
2020/12/24 12:39:23;;;;;;;50.30;24.30;;;7.80;99.90;;;;;;5072005;28;20104;-84